createdAt,value
2023-02-03T00:04:20.708Z,3.53
2023-02-03T00:09:23.129Z,5.82
2023-02-03T00:14:25.399Z,4.37
2023-02-03T00:19:28.969Z,3.70
2023-02-03T00:24:31.157Z,3.10
2023-02-03T00:29:33.534Z,3.72
2023-02-03T00:34:37.245Z,5.97
2023-02-03T00:39:39.679Z,5.23
2023-02-03T00:44:42.043Z,3.70
2023-02-03T00:49:45.702Z,3.57
2023-02-03T00:54:48.027Z,2.67
2023-02-03T00:59:50.215Z,3.70
2023-02-03T01:04:53.756Z,2.97
2023-02-03T01:09:56.235Z,4.22
2023-02-03T01:14:59.173Z,5.37
2023-02-03T01:20:03.995Z,5.68
2023-02-03T01:25:07.500Z,5.78
2023-02-03T01:30:11.767Z,6.80
2023-02-03T01:35:15.769Z,5.35
2023-02-03T01:40:19.178Z,5.20
2023-02-03T01:45:21.626Z,5.55
2023-02-03T01:50:31.029Z,5.90
2023-02-03T01:55:39.478Z,5.93
2023-02-03T02:00:42.504Z,5.03
2023-02-03T02:05:53.552Z,5.40
2023-02-03T02:10:56.660Z,4.28
2023-02-03T02:16:07.939Z,4.75
2023-02-03T02:21:57.029Z,5.80
2023-02-03T02:27:09.767Z,5.15
2023-02-03T02:32:34.909Z,4.43
2023-02-03T02:37:50.631Z,3.78
2023-02-03T02:43:08.245Z,4.03
2023-02-03T02:48:21.433Z,4.00
2023-02-03T02:53:29.383Z,4.45
2023-02-03T02:58:35.319Z,5.03
2023-02-03T03:03:39.080Z,5.07
2023-02-03T03:08:49.191Z,3.95
2023-02-03T03:13:55.632Z,4.40
2023-02-03T03:19:05.431Z,4.20
2023-02-03T03:24:14.149Z,4.10
2023-02-03T03:29:22.875Z,3.67
2023-02-03T03:34:27.801Z,3.42
2023-02-03T03:39:42.780Z,3.50
2023-02-03T03:44:52.788Z,4.15
2023-02-03T03:50:01.303Z,3.77
2023-02-03T03:55:08.787Z,3.40
2023-02-03T04:00:17.438Z,3.22
2023-02-03T04:05:22.435Z,3.90
2023-02-03T04:10:32.767Z,3.92
2023-02-03T04:15:35.866Z,3.63
2023-02-03T04:20:39.484Z,3.90
2023-02-03T04:25:41.894Z,4.18
2023-02-03T04:30:44.414Z,3.73
2023-02-03T04:35:48.029Z,4.15
2023-02-03T04:40:50.361Z,4.67
2023-02-03T04:45:52.701Z,4.30
2023-02-03T04:51:01.197Z,4.35
2023-02-03T04:56:04.160Z,3.97
2023-02-03T05:01:08.728Z,5.05
2023-02-03T05:06:12.245Z,3.97
2023-02-03T05:11:14.393Z,4.57
2023-02-03T05:16:16.768Z,4.68
2023-02-03T05:21:20.819Z,4.33
2023-02-03T05:26:23.839Z,4.75
2023-02-03T05:31:26.084Z,5.63
2023-02-03T05:36:29.722Z,5.13
2023-02-03T05:41:32.043Z,4.90
2023-02-03T05:46:34.300Z,5.00
2023-02-03T05:51:39.375Z,4.47
2023-02-03T05:56:41.753Z,4.90
2023-02-03T06:01:44.046Z,3.80
2023-02-03T06:06:48.127Z,4.72
2023-02-03T06:11:50.336Z,4.17
2023-02-03T06:16:52.698Z,4.60
2023-02-03T06:21:56.269Z,4.80
2023-02-03T06:26:58.541Z,4.65
2023-02-03T06:32:00.960Z,4.05
2023-02-03T06:37:04.959Z,4.03
2023-02-03T06:42:07.529Z,4.93
2023-02-03T06:47:09.752Z,5.03
2023-02-03T06:52:13.551Z,4.53
2023-02-03T06:57:15.734Z,5.25
2023-02-03T07:02:18.715Z,4.70
2023-02-03T07:07:22.458Z,5.03
2023-02-03T07:12:24.933Z,5.13
2023-02-03T07:17:27.497Z,5.47
2023-02-03T07:22:31.183Z,4.45
2023-02-03T07:27:33.655Z,5.13
2023-02-03T07:32:36.119Z,4.53
2023-02-03T07:37:40.283Z,4.87
2023-02-03T07:42:43.899Z,4.97
2023-02-03T07:47:46.415Z,4.55
2023-02-03T07:52:52.329Z,5.90
2023-02-03T07:57:55.339Z,5.30
2023-02-03T08:02:57.637Z,5.40
2023-02-03T08:08:01.244Z,5.60
2023-02-03T08:13:03.622Z,5.47
2023-02-03T08:18:06.244Z,5.43
2023-02-03T08:23:10.055Z,5.10
2023-02-03T08:28:12.629Z,5.43
2023-02-03T08:33:15.071Z,4.47
2023-02-03T08:38:18.968Z,5.22
2023-02-03T08:43:21.454Z,5.33
2023-02-03T08:48:23.917Z,6.00
2023-02-03T08:53:29.840Z,5.13
2023-02-03T08:58:32.518Z,5.88
2023-02-03T09:03:35.122Z,5.82
2023-02-03T09:08:39.568Z,6.33
2023-02-03T09:13:42.618Z,6.78
2023-02-03T09:18:45.782Z,6.05
2023-02-03T09:23:49.470Z,6.60
2023-02-03T09:28:53.246Z,6.47
2023-02-03T09:33:55.817Z,6.63
2023-02-03T09:38:59.794Z,7.07
2023-02-03T09:44:14.263Z,7.60
2023-02-03T09:49:25.761Z,7.57
2023-02-03T09:54:42.718Z,7.40
2023-02-03T09:59:45.125Z,6.43
2023-02-03T10:04:58.753Z,6.53
2023-02-03T10:10:17.777Z,7.40
2023-02-03T10:15:46.023Z,7.80
2023-02-03T10:20:53.144Z,8.27
2023-02-03T10:26:01.257Z,9.10
2023-02-03T10:31:16.969Z,8.80
2023-02-03T10:36:31.398Z,8.15
2023-02-03T10:41:35.526Z,8.57
2023-02-03T10:46:41.452Z,8.80
2023-02-03T10:51:51.200Z,9.07
2023-02-03T10:57:01.636Z,8.25
2023-02-03T11:02:10.273Z,7.63
2023-02-03T11:07:26.419Z,6.97
2023-02-03T11:12:30.235Z,7.40
2023-02-03T11:17:36.936Z,6.03
2023-02-03T11:22:42.037Z,7.35
2023-02-03T11:27:47.014Z,6.65
2023-02-03T11:32:50.916Z,5.88
2023-02-03T11:37:55.884Z,7.00
2023-02-03T11:43:17.947Z,7.90
2023-02-03T11:48:31.220Z,7.15
2023-02-03T11:53:58.671Z,8.50
2023-02-03T11:59:34.128Z,8.23
2023-02-03T12:05:04.361Z,8.60
2023-02-03T12:10:21.566Z,8.33
2023-02-03T12:15:56.508Z,8.48
2023-02-03T12:21:17.155Z,7.22
2023-02-03T12:26:23.644Z,6.95
2023-02-03T12:31:38.567Z,6.13
2023-02-03T12:36:47.386Z,5.97
2023-02-03T12:41:59.807Z,5.88
2023-02-03T12:47:15.283Z,5.03
2023-02-03T12:52:25.065Z,5.05
2023-02-03T12:57:34.581Z,5.30
2023-02-03T13:02:54.986Z,4.57
2023-02-03T13:08:11.969Z,4.82
2023-02-03T13:13:23.233Z,4.47
2023-02-03T13:18:32.493Z,4.22
2023-02-03T13:23:34.910Z,4.10
2023-02-03T13:29:10.950Z,4.43
2023-02-03T13:34:37.066Z,4.97
2023-02-03T13:39:55.665Z,4.32
2023-02-03T13:45:08.221Z,4.10
2023-02-03T13:50:22.847Z,4.15
2023-02-03T13:55:33.447Z,4.13
2023-02-03T14:01:32.405Z,3.72
2023-02-03T14:07:02.477Z,3.40
2023-02-03T14:13:00.362Z,4.05
2023-02-03T14:18:20.110Z,3.95
2023-02-03T14:23:35.292Z,4.83
2023-02-03T14:28:42.411Z,4.72
2023-02-03T14:34:08.515Z,4.10
2023-02-03T14:40:11.774Z,5.18
2023-02-03T14:45:36.622Z,4.38
2023-02-03T14:50:59.388Z,5.23
2023-02-03T14:56:19.074Z,4.03
2023-02-03T15:01:47.815Z,4.07
2023-02-03T15:06:53.310Z,3.30
2023-02-03T15:11:56.907Z,4.38
2023-02-03T15:17:02.488Z,4.30
2023-02-03T15:22:20.176Z,3.90
2023-02-03T15:27:27.153Z,4.43
2023-02-03T15:32:36.724Z,4.88
2023-02-03T15:37:47.754Z,6.20
2023-02-03T15:43:00.109Z,5.10
2023-02-03T15:48:12.061Z,7.72
2023-02-03T15:53:22.302Z,5.85
2023-02-03T15:58:30.973Z,6.40
2023-02-03T16:03:39.608Z,6.25
2023-02-03T16:08:45.119Z,7.10
2023-02-03T16:13:49.162Z,8.15
2023-02-03T16:18:55.139Z,8.48
2023-02-03T16:23:57.968Z,10.90
2023-02-03T16:29:14.926Z,9.32
2023-02-03T16:34:19.549Z,10.60
2023-02-03T16:39:21.751Z,12.00
2023-02-03T16:44:25.269Z,11.80
2023-02-03T16:49:27.606Z,11.15
2023-02-03T16:54:29.789Z,11.48
2023-02-03T16:59:33.739Z,10.27
2023-02-03T17:04:36.034Z,10.77
2023-02-03T17:09:38.385Z,13.20
2023-02-03T17:14:42.212Z,13.20
2023-02-03T17:19:44.724Z,13.27
2023-02-03T17:24:47.276Z,15.17
2023-02-03T17:29:51.107Z,13.48
2023-02-03T17:34:53.530Z,14.60
2023-02-03T17:55:56.601Z,16.02
2023-02-03T18:01:01.118Z,15.90
2023-02-03T18:06:04.765Z,14.57
2023-02-03T18:11:08.066Z,17.38
2023-02-03T18:16:14.910Z,18.77
2023-02-03T18:21:17.249Z,18.23
2023-02-03T18:26:22.079Z,16.95
2023-02-03T18:31:26.873Z,25.17
2023-02-03T18:36:30.170Z,20.38
2023-02-03T18:41:33.828Z,16.27
2023-02-03T18:46:38.465Z,15.60
2023-02-03T18:51:40.685Z,14.15
2023-02-03T18:56:42.877Z,16.20
2023-02-03T19:01:47.025Z,17.60
2023-02-03T19:06:50.208Z,15.17
2023-02-03T19:11:53.219Z,14.50
2023-02-03T19:16:57.261Z,16.45
2023-02-03T19:22:00.860Z,12.82
2023-02-03T19:27:04.727Z,13.60
2023-02-03T19:32:08.685Z,11.93
2023-02-03T19:37:12.165Z,11.93
2023-02-03T19:42:16.135Z,10.38
2023-02-03T19:47:22.199Z,11.93
2023-02-03T19:52:25.437Z,11.57
2023-02-03T19:57:27.782Z,12.73
2023-02-03T20:02:31.813Z,9.23
2023-02-03T20:07:35.172Z,8.75
2023-02-03T20:12:38.579Z,8.95
2023-02-03T20:17:43.080Z,11.30
2023-02-03T20:22:46.408Z,9.43
2023-02-03T20:27:49.433Z,9.70
2023-02-03T20:32:53.852Z,10.27
2023-02-03T20:37:57.090Z,10.95
2023-02-03T20:43:00.691Z,9.43
2023-02-03T20:48:10.225Z,9.47
2023-02-03T20:53:15.410Z,10.07
2023-02-03T20:58:21.972Z,10.48
2023-02-03T21:03:26.950Z,11.95
2023-02-03T21:08:29.601Z,11.00
2023-02-03T21:13:36.203Z,10.80
2023-02-03T21:18:48.550Z,13.80
2023-02-03T21:23:53.170Z,9.93
2023-02-03T21:28:57.980Z,9.05
2023-02-03T21:34:06.679Z,9.40
2023-02-03T21:39:29.262Z,8.70
2023-02-03T21:44:34.848Z,10.52
2023-02-03T21:49:38.588Z,10.68
2023-02-03T21:54:42.246Z,12.27
2023-02-03T21:59:46.172Z,9.52
2023-02-03T22:04:51.083Z,11.97
2023-02-03T22:09:53.388Z,11.52
2023-02-03T22:14:55.635Z,9.85
2023-02-03T22:19:59.271Z,11.70
2023-02-03T22:25:02.351Z,10.65
2023-02-03T22:30:06.368Z,10.70
2023-02-03T22:35:10.528Z,10.05
2023-02-03T22:40:13.481Z,11.27
2023-02-03T22:45:16.179Z,11.52
2023-02-03T22:50:34.323Z,12.50
2023-02-03T22:55:38.783Z,9.80
2023-02-03T23:00:40.920Z,7.28
2023-02-03T23:05:44.421Z,8.35
2023-02-03T23:10:46.556Z,7.80
2023-02-03T23:15:48.840Z,7.45
2023-02-03T23:20:52.554Z,8.20
2023-02-03T23:25:54.687Z,7.60
2023-02-03T23:30:56.873Z,6.93
2023-02-03T23:36:00.402Z,7.22
2023-02-03T23:41:02.529Z,6.95
2023-02-03T23:46:05.101Z,7.33
2023-02-03T23:51:08.833Z,6.07
2023-02-03T23:56:11.016Z,6.75
